Terminal Aerodrome Forecast
Issued by NWS

Home | Current Version | Previous Version | Text Only | Print | Product List | Glossary On
Versions: 1 2 3 4 5 6 7 8 9 10 11 12 13 14 15
883
FTUS43 KEAX 091124
TAFSTJ
TAF
KSTJ 091124Z 0912/1012 34019G28KT P6SM FEW100
     FM100200 33012KT P6SM SCT150=

USA.gov is the U.S. government's official web portal to all federal, state and local government web resources and services.